Dandenong, Australia
Current Conditions -  °F | °C
As of 5:00 AM on Tuesday 25 Nov 2014 (Local Time) from YMEN Reporting Station
Clear Clear  
Wind Chill: 50°   Ceiling: Unl
Heat Index: 50°   Visibility: 6mi
Dew Point: 45°   Wind: 12mph
Humidity: 82%   Direction: 310°NW
Pressure: 29.97"   Gusts: NA
Location:  37.99°S, 145.21°E
Report Text: YMEN 241800Z AUTO 31010KT 9999 // NCD 10/07 Q1015
Loading
Personal Weather Stations






























Interactive Weather Map New forecast layout! Learn more

10-Day Weather Forecast

Advertisements
Track Severe Weather on mobile